Time;durP1;ratioP1;P1;durP2;ratioP2;P2;SDS_P1;SDS_P2;PMS_P1;PMS_P2;Temp;Humidity;BMP_temperature;BMP_pressure;BME280_temperature;BME280_humidity;BME280_pressure;Samples;Min_cycle;Max_cycle;Signal;HPM_P1;HPM_P2
2021/11/28 00:04:21;;;;;;;8.85;3.40;;;2.50;99.90;;;;;;6698041;89;20172;-79
2021/11/28 00:14:21;;;;;;;8.70;4.47;;;2.70;99.90;;;;;;6691052;89;20692;-79
2021/11/28 00:24:22;;;;;;;6.85;3.30;;;2.70;99.90;;;;;;6691883;89;20164;-78
2021/11/28 00:34:23;;;;;;;6.10;2.85;;;2.90;99.90;;;;;;6696993;89;20174;-78
2021/11/28 00:44:24;;;;;;;6.78;3.17;;;2.90;99.90;;;;;;6691737;88;20182;-79
2021/11/28 00:54:26;;;;;;;7.97;3.80;;;2.90;99.90;;;;;;6695773;89;20684;-80
2021/11/28 01:04:27;;;;;;;7.35;3.58;;;3.00;99.90;;;;;;6700544;88;20184;-79
2021/11/28 01:14:27;;;;;;;8.00;3.42;;;3.00;99.90;;;;;;6696900;88;20190;-80
2021/11/28 01:24:28;;;;;;;7.18;3.00;;;3.10;99.90;;;;;;6696488;88;20687;-79
2021/11/28 01:44:32;;;;;;;9.60;3.53;;;2.90;99.90;;;;;;6749775;88;20549;-78
2021/11/28 01:54:32;;;;;;;10.10;3.67;;;3.00;99.90;;;;;;6748470;88;20221;-78
2021/11/28 02:04:34;;;;;;;7.75;3.85;;;3.10;99.90;;;;;;6747313;88;21089;-77
2021/11/28 02:14:34;;;;;;;7.43;3.25;;;2.90;99.90;;;;;;6730520;88;20499;-78
2021/11/28 02:24:35;;;;;;;9.20;3.37;;;3.00;99.90;;;;;;6730025;88;20211;-78
2021/11/28 02:34:36;;;;;;;6.75;3.20;;;3.10;99.90;;;;;;6730764;88;21111;-78
2021/11/28 02:44:36;;;;;;;5.95;3.20;;;3.10;99.90;;;;;;6732006;88;20221;-78
2021/11/28 02:54:38;;;;;;;6.45;3.40;;;3.00;99.90;;;;;;6731603;88;20212;-78
2021/11/28 03:04:39;;;;;;;8.15;3.30;;;3.00;99.90;;;;;;6724519;88;20184;-79
2021/11/28 03:14:40;;;;;;;6.65;3.20;;;3.10;99.90;;;;;;6729990;88;20208;-78
2021/11/28 03:24:41;;;;;;;6.07;2.92;;;3.10;99.90;;;;;;6730449;88;20212;-78
2021/11/28 03:34:41;;;;;;;7.28;3.03;;;3.20;99.90;;;;;;6731264;88;20601;-78
2021/11/28 03:44:42;;;;;;;7.93;3.20;;;3.20;99.90;;;;;;6731635;88;20205;-79
2021/11/28 03:54:42;;;;;;;6.62;3.10;;;3.20;99.90;;;;;;6731155;88;20767;-78
2021/11/28 04:04:43;;;;;;;7.65;3.65;;;3.20;99.90;;;;;;6731159;88;20190;-79
2021/11/28 04:14:44;;;;;;;7.90;3.95;;;3.10;99.90;;;;;;6730618;88;20665;-78
2021/11/28 04:24:45;;;;;;;7.53;3.62;;;3.20;99.90;;;;;;6730325;88;20306;-79
2021/11/28 04:34:46;;;;;;;6.78;3.80;;;2.90;99.90;;;;;;6730724;88;20213;-78
2021/11/28 04:44:46;;;;;;;7.95;4.03;;;3.00;99.90;;;;;;6733081;88;20205;-78
2021/11/28 04:54:47;;;;;;;7.50;3.95;;;3.00;99.90;;;;;;6732401;88;20185;-78
2021/11/28 05:04:47;;;;;;;7.78;4.30;;;3.00;99.90;;;;;;6733704;88;20615;-78
2021/11/28 05:14:48;;;;;;;8.85;4.20;;;3.00;99.90;;;;;;6732721;88;20366;-78
2021/11/28 05:24:50;;;;;;;7.70;4.37;;;3.10;99.90;;;;;;6731849;88;20502;-78
2021/11/28 05:34:51;;;;;;;9.07;3.95;;;3.00;99.90;;;;;;6732227;88;20522;-78
2021/11/28 05:44:52;;;;;;;7.72;4.15;;;3.00;99.90;;;;;;6732268;88;20241;-78
2021/11/28 05:54:55;;;;;;;9.50;4.30;;;2.90;99.90;;;;;;6731203;88;20184;-78
2021/11/28 06:04:56;;;;;;;8.18;4.40;;;3.00;99.90;;;;;;6731533;88;20630;-77
2021/11/28 06:14:56;;;;;;;8.43;4.80;;;3.00;99.90;;;;;;6731328;88;20196;-78
2021/11/28 06:24:57;;;;;;;11.40;5.50;;;3.00;99.90;;;;;;6730610;88;20507;-77
2021/11/28 06:34:58;;;;;;;9.88;4.82;;;2.90;99.90;;;;;;6730765;88;20192;-78
2021/11/28 06:44:59;;;;;;;9.55;4.95;;;2.90;99.90;;;;;;6730778;88;20212;-78
2021/11/28 06:54:59;;;;;;;10.52;5.07;;;2.80;99.90;;;;;;6731694;88;20769;-78
2021/11/28 07:05:00;;;;;;;9.07;4.85;;;2.80;99.90;;;;;;6731993;88;20184;-78
2021/11/28 07:15:00;;;;;;;8.00;4.82;;;2.80;99.90;;;;;;6745375;88;20225;-77
2021/11/28 07:25:02;;;;;;;10.15;4.80;;;2.80;99.90;;;;;;6741938;88;20214;-78
2021/11/28 07:35:04;;;;;;;9.18;4.62;;;2.80;99.90;;;;;;6740950;88;20839;-77
2021/11/28 07:45:06;;;;;;;9.00;5.45;;;2.70;99.90;;;;;;6743752;88;20235;-78
2021/11/28 07:55:07;;;;;;;10.88;4.85;;;2.80;99.90;;;;;;6742614;88;20192;-79
2021/11/28 08:05:08;;;;;;;7.97;4.72;;;3.00;99.90;;;;;;6739492;88;20192;-76
2021/11/28 08:15:15;;;;;;;10.05;5.37;;;3.30;99.90;;;;;;6726742;88;20190;-79
2021/11/28 08:25:18;;;;;;;10.90;5.07;;;3.30;99.90;;;;;;6733746;88;20707;-77
2021/11/28 08:35:19;;;;;;;9.82;4.93;;;3.50;99.90;;;;;;6728398;88;20715;-77
2021/11/28 08:45:20;;;;;;;9.77;5.15;;;3.70;99.90;;;;;;6738189;88;20195;-78
2021/11/28 08:55:21;;;;;;;9.53;5.00;;;3.90;99.90;;;;;;6738270;88;20199;-77
2021/11/28 09:05:24;;;;;;;10.57;4.75;;;4.10;99.90;;;;;;6740655;88;21002;-77
2021/11/28 09:15:28;;;;;;;9.13;5.03;;;4.60;99.90;;;;;;6740110;88;20184;-77
2021/11/28 09:25:30;;;;;;;9.93;4.90;;;5.10;99.90;;;;;;6734499;88;20214;-77
2021/11/28 09:35:32;;;;;;;10.32;5.20;;;5.40;99.90;;;;;;6729389;77;20345;-77
2021/11/28 09:45:32;;;;;;;10.20;4.80;;;5.20;99.90;;;;;;6700890;88;20202;-77
2021/11/28 09:55:34;;;;;;;7.87;4.80;;;4.70;99.90;;;;;;6699275;88;20199;-77
2021/11/28 10:05:35;;;;;;;7.82;4.37;;;4.40;99.90;;;;;;6703288;88;20210;-77
2021/11/28 10:15:35;;;;;;;8.20;4.25;;;4.40;99.90;;;;;;6706933;88;20193;-77
2021/11/28 10:25:37;;;;;;;7.75;4.20;;;4.70;99.90;;;;;;6706317;88;20186;-80
2021/11/28 10:35:40;;;;;;;9.30;5.03;;;4.70;99.90;;;;;;6704172;88;20249;-77
2021/11/28 10:45:47;;;;;;;9.98;5.05;;;4.50;99.90;;;;;;6705398;88;20218;-77
2021/11/28 10:55:50;;;;;;;9.57;5.65;;;4.50;99.90;;;;;;6706387;88;20197;-77
2021/11/28 11:05:54;;;;;;;10.65;6.35;;;4.30;99.90;;;;;;6704699;88;20220;-78
2021/11/28 11:15:54;;;;;;;14.57;8.00;;;4.30;99.90;;;;;;6709020;88;20194;-78
2021/11/28 11:26:11;;;;;;;16.40;8.25;;;4.20;99.90;;;;;;6712936;88;20210;-78
2021/11/28 11:36:11;;;;;;;15.90;8.45;;;4.00;99.90;;;;;;6692621;88;20666;-77
2021/11/28 11:46:14;;;;;;;12.27;7.18;;;4.10;99.90;;;;;;6704243;88;20264;-77
2021/11/28 11:56:19;;;;;;;14.23;8.02;;;4.20;99.90;;;;;;6706387;88;20197;-76
2021/11/28 12:06:56;;;;;;;13.48;7.78;;;4.40;99.90;;;;;;6702583;88;20246;-76
2021/11/28 12:16:58;;;;;;;16.05;8.68;;;4.20;99.90;;;;;;6689016;88;20216;-76
2021/11/28 12:27:02;;;;;;;16.60;8.88;;;4.20;99.90;;;;;;6700558;88;20750;-77
2021/11/28 12:37:03;;;;;;;20.05;10.68;;;4.40;99.90;;;;;;6701724;88;20315;-77
2021/11/28 12:47:09;;;;;;;16.87;8.82;;;4.50;99.90;;;;;;6696972;88;20330;-77
2021/11/28 12:57:19;;;;;;;17.77;9.38;;;4.40;99.90;;;;;;6706982;88;20654;-76
2021/11/28 13:07:32;;;;;;;19.10;8.90;;;4.30;99.90;;;;;;6706422;88;20753;-78
2021/11/28 13:17:33;;;;;;;16.87;8.65;;;4.20;99.90;;;;;;6716288;88;20212;-79
2021/11/28 13:27:33;;;;;;;18.40;8.50;;;4.30;99.90;;;;;;6718179;88;20651;-79
2021/11/28 13:37:34;;;;;;;17.83;8.45;;;4.30;99.90;;;;;;6708570;88;20720;-78
2021/11/28 13:47:34;;;;;;;14.35;7.65;;;4.20;99.90;;;;;;6703876;88;20970;-78
2021/11/28 13:57:35;;;;;;;14.18;7.62;;;4.20;99.90;;;;;;6693597;88;20202;-78
2021/11/28 14:07:42;;;;;;;18.50;8.75;;;4.20;99.90;;;;;;6687565;88;20208;-77
2021/11/28 14:18:05;;;;;;;18.35;8.95;;;4.30;99.90;;;;;;6689389;88;20632;-77
2021/11/28 14:28:22;;;;;;;19.90;10.18;;;4.30;99.90;;;;;;6684629;88;20313;-76
2021/11/28 14:38:33;;;;;;;25.95;11.70;;;4.20;99.90;;;;;;6697862;88;20198;-76
2021/11/28 14:48:34;;;;;;;28.02;12.45;;;4.40;99.90;;;;;;6698826;88;20186;-76
2021/11/28 14:58:41;;;;;;;26.98;12.32;;;4.30;99.90;;;;;;6698694;88;20695;-76
2021/11/28 15:08:43;;;;;;;24.80;12.23;;;4.10;99.90;;;;;;6714175;88;20283;-76
2021/11/28 15:18:43;;;;;;;21.10;11.20;;;4.00;99.90;;;;;;6691071;88;20175;-77
2021/11/28 15:28:44;;;;;;;23.35;11.12;;;4.00;99.90;;;;;;6687278;88;20199;-78
2021/11/28 15:38:44;;;;;;;22.30;11.38;;;4.00;99.90;;;;;;6693797;88;20237;-79
2021/11/28 15:48:45;;;;;;;20.08;11.40;;;3.90;99.90;;;;;;6692109;88;20203;-78
2021/11/28 15:58:45;;;;;;;21.45;11.05;;;4.00;99.90;;;;;;6701506;88;20216;-80
2021/11/28 16:08:49;;;;;;;20.55;10.88;;;3.90;99.90;;;;;;6701776;88;20517;-78
2021/11/28 16:18:49;;;;;;;20.67;11.32;;;3.80;99.90;;;;;;6707202;88;20584;-80
2021/11/28 16:28:50;;;;;;;21.23;11.30;;;3.70;99.90;;;;;;6701848;88;20333;-79
2021/11/28 16:38:52;;;;;;;21.50;11.27;;;3.50;99.90;;;;;;6692784;88;20200;-81
2021/11/28 16:48:52;;;;;;;22.87;12.10;;;3.60;99.90;;;;;;6696375;88;20189;-78
2021/11/28 16:58:53;;;;;;;23.12;12.15;;;3.60;99.90;;;;;;6697667;88;20233;-78
2021/11/28 17:08:54;;;;;;;22.85;11.57;;;3.70;99.90;;;;;;6693255;88;20203;-79
2021/11/28 17:18:54;;;;;;;23.50;12.18;;;3.80;99.90;;;;;;6687341;88;20408;-78
2021/11/28 17:28:57;;;;;;;23.42;12.05;;;3.80;99.90;;;;;;6691538;88;20323;-78
2021/11/28 17:38:58;;;;;;;26.17;12.25;;;3.80;99.90;;;;;;6692175;88;20524;-76
2021/11/28 17:48:59;;;;;;;26.27;12.50;;;3.90;99.90;;;;;;6688359;88;20256;-81
2021/11/28 17:58:59;;;;;;;23.60;12.02;;;3.80;99.90;;;;;;6696732;88;20186;-80
2021/11/28 18:09:00;;;;;;;24.35;12.85;;;3.70;99.90;;;;;;6700691;88;20628;-79
2021/11/28 18:19:00;;;;;;;26.77;12.57;;;3.60;99.90;;;;;;6690361;88;20194;-78
2021/11/28 18:29:01;;;;;;;29.95;13.65;;;3.70;99.90;;;;;;6699201;88;20249;-78
2021/11/28 18:39:03;;;;;;;26.67;13.43;;;3.60;99.90;;;;;;6690248;88;20225;-79
2021/11/28 18:49:04;;;;;;;30.23;13.75;;;3.60;99.90;;;;;;6711295;88;20183;-80
2021/11/28 18:59:05;;;;;;;29.63;13.35;;;3.50;99.90;;;;;;6705386;88;20195;-80
2021/11/28 19:09:08;;;;;;;30.92;14.43;;;3.50;99.90;;;;;;6706743;88;20213;-80
2021/11/28 19:19:09;;;;;;;30.55;13.57;;;3.50;99.90;;;;;;6698689;88;20556;-79
2021/11/28 19:29:09;;;;;;;26.65;12.73;;;3.60;99.90;;;;;;6699263;88;20194;-80
2021/11/28 19:39:13;;;;;;;26.17;11.52;;;3.50;99.90;;;;;;6698104;89;20207;-80
2021/11/28 19:49:15;;;;;;;26.25;12.05;;;3.50;99.90;;;;;;6697962;88;20346;-79
2021/11/28 19:59:15;;;;;;;18.45;8.00;;;3.50;99.90;;;;;;6700462;89;20178;-79
2021/11/28 20:09:17;;;;;;;15.73;7.13;;;3.50;99.90;;;;;;6703971;88;20240;-78
2021/11/28 20:19:18;;;;;;;14.45;6.47;;;3.50;99.90;;;;;;6697180;88;20509;-79
2021/11/28 20:29:19;;;;;;;12.30;6.20;;;3.50;99.90;;;;;;6702524;88;20182;-80
2021/11/28 20:39:20;;;;;;;11.40;5.60;;;3.50;99.90;;;;;;6708942;88;20209;-80
2021/11/28 20:49:21;;;;;;;9.98;4.53;;;3.40;99.90;;;;;;6706589;88;20211;-79
2021/11/28 20:59:22;;;;;;;10.57;4.80;;;3.40;99.90;;;;;;6702440;88;20671;-78
2021/11/28 21:09:22;;;;;;;12.57;5.95;;;3.50;99.90;;;;;;6706727;88;20195;-79
2021/11/28 21:19:23;;;;;;;13.52;5.30;;;3.40;99.90;;;;;;6702601;88;20186;-83
2021/11/28 21:29:24;;;;;;;10.55;4.70;;;3.40;99.90;;;;;;6701261;88;20215;-77
2021/11/28 21:39:25;;;;;;;11.73;4.70;;;3.50;99.90;;;;;;6700909;88;20202;-78
2021/11/28 21:49:25;;;;;;;10.07;5.00;;;3.50;99.90;;;;;;6685075;88;20257;-79
2021/11/28 21:59:26;;;;;;;14.13;6.72;;;3.50;99.90;;;;;;6686967;88;20570;-78
2021/11/28 22:09:27;;;;;;;13.32;5.22;;;3.60;99.90;;;;;;6687853;88;20191;-78
2021/11/28 22:19:27;;;;;;;11.10;7.05;;;3.50;99.90;;;;;;6683885;88;20264;-77
2021/11/28 22:29:28;;;;;;;12.30;7.03;;;3.40;99.90;;;;;;6682151;88;20214;-77
2021/11/28 22:39:28;;;;;;;15.38;7.72;;;3.30;99.90;;;;;;6692167;88;20676;-78
2021/11/28 22:49:29;;;;;;;17.98;7.70;;;3.20;99.90;;;;;;6688225;88;20202;-78
2021/11/28 22:59:30;;;;;;;16.27;7.65;;;3.10;99.90;;;;;;6698299;88;20276;-77
2021/11/28 23:09:30;;;;;;;13.62;7.43;;;3.20;99.90;;;;;;6703917;88;20603;-77
2021/11/28 23:19:31;;;;;;;20.42;9.88;;;3.20;99.90;;;;;;6702395;88;20187;-78
2021/11/28 23:29:31;;;;;;;18.98;10.35;;;3.10;99.90;;;;;;6700836;88;20193;-78
2021/11/28 23:39:32;;;;;;;19.85;10.57;;;3.10;99.90;;;;;;6696366;88;20209;-78
2021/11/28 23:49:32;;;;;;;21.10;10.43;;;2.90;99.90;;;;;;6700510;88;20693;-78
2021/11/28 23:59:33;;;;;;;20.70;9.95;;;2.90;99.90;;;;;;6700346;88;20260;-78
